Crew | Aerofun Virtual



 METAR AND TAF INFORMATION
METAR FOR EGPF
ADDS - METARS form results

(0519 UTC 20 May 2019)
Data provider http://aviationweather.gov/metar/data/
 
METAR text: EGPF 200450Z AUTO 25004KT 9999 BKN016 OVC025 10/09 Q1012
Conditions at: EGPF (GLASGOW AIRPORT , GB) observed 0450 UTC 20 May 2019
Temperature: 10.0°C (50°F)
Dewpoint: 9.0°C (48°F) [RH = 93%]
Pressure (altimeter): 29.88 inches Hg (1012.0 mb)
Winds: from the WSW (250 degrees) at 5 MPH (4 knots; 2.1 m/s)
Visibility: 6 or more miles (10+ km)
Ceiling: 1600 feet AGL
Clouds: broken clouds at 1600 feet AGL
overcast cloud deck at 2500 feet AGL
Weather: no significant weather observed at this time

METAR text: EGPF 200420Z AUTO 26002KT 9999 SCT018 OVC023 10/09 Q1012
Conditions at: EGPF (GLASGOW AIRPORT , GB) observed 0420 UTC 20 May 2019
Temperature: 10.0°C (50°F)
Dewpoint: 9.0°C (48°F) [RH = 93%]
Pressure (altimeter): 29.88 inches Hg (1012.0 mb)
Winds: from the W (260 degrees) at 2 MPH (2 knots; 1.0 m/s)
Visibility: 6 or more miles (10+ km)
Ceiling: 2300 feet AGL
Clouds: scattered clouds at 1800 feet AGL
overcast cloud deck at 2300 feet AGL
Weather: no significant weather observed at this time

Forecast for: EGPF (GLASGOW AIRPORT , GB)
Text: TAF EGPF 200454Z 2006/2106 27005KT 9999 SCT020
Forecast period: 0600 UTC 20 May 2019 to 0600 UTC 21 May 2019
Forecast type: FROM: standard forecast or significant change
Winds: from the W (270 degrees) at 6 MPH (5 knots; 2.6 m/s)
Visibility: 6 or more miles 10+ km)
Ceiling: at least 12,000 feet AGL
Clouds: scattered clouds at 2000 feet AGL
Weather: no significant weather forecast for this period

 AIRPORT MAP

 RUNWAY INFORMATION
Runway 05 Runway length 8720 ft Runway width 151 ft
Runway elevation 26 ft Runway displaced threshold 0 ft Runway heading 46
Runway 23 Runway length 8720 ft Runway width 151 ft
Runway elevation 21 ft Runway displaced threshold 980 ft Runway heading 226
Runway 09 Runway length 3622 ft Runway width 151 ft
Runway elevation 17 ft Runway displaced threshold 203 ft Runway heading 91
Runway 27 Runway length 3622 ft Runway width 151 ft
Runway elevation 23 ft Runway displaced threshold 0 ft Runway heading 271

 AIRPORT FREQUENCIES
Type ACC Name SHANWICK O Frequency 120.35 MHZ
Type APP Name APP Frequency 119.1 MHZ
Type ATIS Name ATIS Frequency 129.575 MHZ
Type GND Name GND Frequency 121.7 MHZ
Type TWR Name TWR Frequency 118.8 MHZ

 AIRPORT NEAR NAVIGATION AIDS
Type NDB Name Glasgow Frequency 331 KHZ
Type VOR-DME Name Glasgow Frequency 115400 KHZ